Terminal Aerodrome Forecast
Issued by NWS

Home | Current Version | Previous Version | Text Only | Print | Product List | Glossary On
Versions: 1 2 3 4 5 6 7 8 9 10 11 12 13
000
FTUS45 KRIW 081124
TAFCPR
TAF
KCPR 081124Z 0812/0912 VRB05KT P6SM VCFG FEW005
     FM081700 VRB05KT P6SM FEW150 SCT200
     FM090200 21007KT P6SM SCT100 BKN150 WS020/23035KT
     FM090900 23014G20KT P6SM SCT100 BKN150=

USA.gov is the U.S. government's official web portal to all federal, state and local government web resources and services.